sensor_id;sensor_type;location;lat;lon;timestamp;P1;durP1;ratioP1;P2;durP2;ratioP2
59532;SDS011;45351;53.596;10.000;2022-08-20T00:02:02;9.87;;;7.97;;
59532;SDS011;45351;53.596;10.000;2022-08-20T00:04:29;10.43;;;8.10;;
59532;SDS011;45351;53.596;10.000;2022-08-20T00:06:56;12.80;;;9.40;;
59532;SDS011;45351;53.596;10.000;2022-08-20T00:09:23;10.97;;;8.50;;
59532;SDS011;45351;53.596;10.000;2022-08-20T00:11:50;18.27;;;8.73;;
59532;SDS011;45351;53.596;10.000;2022-08-20T00:14:17;11.70;;;9.00;;
59532;SDS011;45351;53.596;10.000;2022-08-20T00:16:44;10.33;;;7.77;;
59532;SDS011;45351;53.596;10.000;2022-08-20T00:19:13;10.40;;;7.97;;
59532;SDS011;45351;53.596;10.000;2022-08-20T00:21:39;11.07;;;7.07;;
59532;SDS011;45351;53.596;10.000;2022-08-20T00:24:06;11.17;;;7.20;;
59532;SDS011;45351;53.596;10.000;2022-08-20T00:26:33;9.43;;;6.97;;
59532;SDS011;45351;53.596;10.000;2022-08-20T00:29:00;9.70;;;7.67;;
59532;SDS011;45351;53.596;10.000;2022-08-20T00:31:27;10.70;;;6.80;;
59532;SDS011;45351;53.596;10.000;2022-08-20T00:33:54;11.57;;;7.27;;
59532;SDS011;45351;53.596;10.000;2022-08-20T00:36:22;14.30;;;9.30;;
59532;SDS011;45351;53.596;10.000;2022-08-20T00:38:49;8.50;;;6.60;;
59532;SDS011;45351;53.596;10.000;2022-08-20T00:41:17;10.00;;;6.63;;
59532;SDS011;45351;53.596;10.000;2022-08-20T00:43:47;9.70;;;6.77;;
59532;SDS011;45351;53.596;10.000;2022-08-20T00:46:18;9.80;;;7.20;;
59532;SDS011;45351;53.596;10.000;2022-08-20T00:48:47;12.20;;;6.83;;
59532;SDS011;45351;53.596;10.000;2022-08-20T00:51:17;10.50;;;7.27;;
59532;SDS011;45351;53.596;10.000;2022-08-20T00:53:52;9.67;;;6.00;;
59532;SDS011;45351;53.596;10.000;2022-08-20T00:56:21;8.40;;;6.00;;
59532;SDS011;45351;53.596;10.000;2022-08-20T00:58:49;8.63;;;6.33;;
59532;SDS011;45351;53.596;10.000;2022-08-20T01:01:17;8.30;;;5.40;;
59532;SDS011;45351;53.596;10.000;2022-08-20T01:03:47;10.20;;;5.70;;
59532;SDS011;45351;53.596;10.000;2022-08-20T01:06:14;8.80;;;5.40;;
59532;SDS011;45351;53.596;10.000;2022-08-20T01:08:44;8.30;;;5.67;;
59532;SDS011;45351;53.596;10.000;2022-08-20T01:11:11;11.13;;;4.63;;
59532;SDS011;45351;53.596;10.000;2022-08-20T01:13:40;6.10;;;4.40;;
59532;SDS011;45351;53.596;10.000;2022-08-20T01:16:11;5.00;;;4.30;;
59532;SDS011;45351;53.596;10.000;2022-08-20T01:18:44;15.80;;;9.70;;
59532;SDS011;45351;53.596;10.000;2022-08-20T01:21:13;7.27;;;5.83;;
59532;SDS011;45351;53.596;10.000;2022-08-20T01:23:44;7.07;;;4.20;;
59532;SDS011;45351;53.596;10.000;2022-08-20T01:26:20;6.57;;;4.93;;
59532;SDS011;45351;53.596;10.000;2022-08-20T01:28:50;8.30;;;5.30;;
59532;SDS011;45351;53.596;10.000;2022-08-20T01:31:22;6.10;;;4.67;;
59532;SDS011;45351;53.596;10.000;2022-08-20T01:33:52;7.50;;;4.57;;
59532;SDS011;45351;53.596;10.000;2022-08-20T01:36:21;7.00;;;4.03;;
59532;SDS011;45351;53.596;10.000;2022-08-20T01:38:49;6.50;;;5.00;;
59532;SDS011;45351;53.596;10.000;2022-08-20T01:41:23;8.43;;;4.50;;
59532;SDS011;45351;53.596;10.000;2022-08-20T01:43:59;6.50;;;3.83;;
59532;SDS011;45351;53.596;10.000;2022-08-20T01:46:27;9.87;;;4.80;;
59532;SDS011;45351;53.596;10.000;2022-08-20T01:49:16;6.83;;;4.00;;
59532;SDS011;45351;53.596;10.000;2022-08-20T01:52:04;17.30;;;11.57;;
59532;SDS011;45351;53.596;10.000;2022-08-20T01:54:53;7.77;;;4.53;;
59532;SDS011;45351;53.596;10.000;2022-08-20T01:57:42;9.07;;;5.20;;
59532;SDS011;45351;53.596;10.000;2022-08-20T02:00:30;10.20;;;6.80;;
59532;SDS011;45351;53.596;10.000;2022-08-20T02:03:19;8.00;;;5.50;;
59532;SDS011;45351;53.596;10.000;2022-08-20T02:05:46;7.43;;;4.60;;
59532;SDS011;45351;53.596;10.000;2022-08-20T02:08:13;7.83;;;5.20;;
59532;SDS011;45351;53.596;10.000;2022-08-20T02:10:40;6.70;;;4.83;;
59532;SDS011;45351;53.596;10.000;2022-08-20T02:13:12;6.60;;;5.10;;
59532;SDS011;45351;53.596;10.000;2022-08-20T02:15:40;6.43;;;5.20;;
59532;SDS011;45351;53.596;10.000;2022-08-20T02:18:08;5.87;;;4.70;;
59532;SDS011;45351;53.596;10.000;2022-08-20T02:20:37;6.97;;;4.47;;
59532;SDS011;45351;53.596;10.000;2022-08-20T02:23:06;7.03;;;5.20;;
59532;SDS011;45351;53.596;10.000;2022-08-20T02:25:34;9.23;;;5.63;;
59532;SDS011;45351;53.596;10.000;2022-08-20T02:28:04;16.53;;;4.27;;
59532;SDS011;45351;53.596;10.000;2022-08-20T02:30:34;11.37;;;5.30;;
59532;SDS011;45351;53.596;10.000;2022-08-20T02:33:04;6.20;;;5.23;;
59532;SDS011;45351;53.596;10.000;2022-08-20T02:35:33;9.33;;;5.13;;
59532;SDS011;45351;53.596;10.000;2022-08-20T02:38:00;9.50;;;6.27;;
59532;SDS011;45351;53.596;10.000;2022-08-20T02:40:28;5.67;;;3.40;;
59532;SDS011;45351;53.596;10.000;2022-08-20T02:42:56;7.40;;;5.33;;
59532;SDS011;45351;53.596;10.000;2022-08-20T02:45:23;9.83;;;5.80;;
59532;SDS011;45351;53.596;10.000;2022-08-20T02:47:52;12.37;;;7.50;;
59532;SDS011;45351;53.596;10.000;2022-08-20T02:50:21;6.40;;;4.60;;
59532;SDS011;45351;53.596;10.000;2022-08-20T02:52:50;8.00;;;5.23;;
59532;SDS011;45351;53.596;10.000;2022-08-20T02:55:17;10.20;;;6.33;;
59532;SDS011;45351;53.596;10.000;2022-08-20T02:57:44;9.77;;;6.77;;
59532;SDS011;45351;53.596;10.000;2022-08-20T03:00:13;11.77;;;8.10;;
59532;SDS011;45351;53.596;10.000;2022-08-20T03:02:42;5.30;;;3.80;;
59532;SDS011;45351;53.596;10.000;2022-08-20T03:05:11;10.10;;;6.83;;
59532;SDS011;45351;53.596;10.000;2022-08-20T03:07:40;11.10;;;7.60;;
59532;SDS011;45351;53.596;10.000;2022-08-20T03:10:08;5.93;;;3.60;;
59532;SDS011;45351;53.596;10.000;2022-08-20T03:12:35;12.70;;;8.27;;
59532;SDS011;45351;53.596;10.000;2022-08-20T03:15:03;8.57;;;4.00;;
59532;SDS011;45351;53.596;10.000;2022-08-20T03:17:31;7.97;;;3.43;;
59532;SDS011;45351;53.596;10.000;2022-08-20T03:19:57;4.90;;;3.30;;
59532;SDS011;45351;53.596;10.000;2022-08-20T03:22:26;8.87;;;5.20;;
59532;SDS011;45351;53.596;10.000;2022-08-20T03:24:53;14.93;;;9.13;;
59532;SDS011;45351;53.596;10.000;2022-08-20T03:27:20;14.10;;;8.30;;
59532;SDS011;45351;53.596;10.000;2022-08-20T03:29:47;5.60;;;3.20;;
59532;SDS011;45351;53.596;10.000;2022-08-20T03:32:14;12.83;;;7.90;;
59532;SDS011;45351;53.596;10.000;2022-08-20T03:34:41;7.43;;;3.17;;
59532;SDS011;45351;53.596;10.000;2022-08-20T03:37:08;12.53;;;9.20;;
59532;SDS011;45351;53.596;10.000;2022-08-20T03:39:37;7.30;;;3.20;;
59532;SDS011;45351;53.596;10.000;2022-08-20T03:42:04;14.90;;;10.40;;
59532;SDS011;45351;53.596;10.000;2022-08-20T03:44:32;14.07;;;5.37;;
59532;SDS011;45351;53.596;10.000;2022-08-20T03:47:01;9.90;;;4.20;;
59532;SDS011;45351;53.596;10.000;2022-08-20T03:49:32;12.37;;;7.67;;
59532;SDS011;45351;53.596;10.000;2022-08-20T03:51:59;12.20;;;3.73;;
59532;SDS011;45351;53.596;10.000;2022-08-20T03:54:28;12.63;;;4.10;;
59532;SDS011;45351;53.596;10.000;2022-08-20T03:56:56;18.07;;;4.07;;
59532;SDS011;45351;53.596;10.000;2022-08-20T03:59:23;10.37;;;3.70;;
59532;SDS011;45351;53.596;10.000;2022-08-20T04:01:50;9.00;;;3.77;;
59532;SDS011;45351;53.596;10.000;2022-08-20T04:04:18;14.00;;;3.50;;
59532;SDS011;45351;53.596;10.000;2022-08-20T04:06:46;18.00;;;3.67;;
59532;SDS011;45351;53.596;10.000;2022-08-20T04:09:13;9.13;;;3.13;;
59532;SDS011;45351;53.596;10.000;2022-08-20T04:11:40;17.23;;;3.30;;
59532;SDS011;45351;53.596;10.000;2022-08-20T04:14:10;13.00;;;3.20;;
59532;SDS011;45351;53.596;10.000;2022-08-20T04:16:37;7.70;;;2.90;;
59532;SDS011;45351;53.596;10.000;2022-08-20T04:19:04;11.43;;;2.80;;
59532;SDS011;45351;53.596;10.000;2022-08-20T04:21:32;7.97;;;3.10;;
59532;SDS011;45351;53.596;10.000;2022-08-20T04:23:59;7.27;;;2.77;;
59532;SDS011;45351;53.596;10.000;2022-08-20T04:26:27;9.30;;;3.37;;
59532;SDS011;45351;53.596;10.000;2022-08-20T04:28:55;8.13;;;2.67;;
59532;SDS011;45351;53.596;10.000;2022-08-20T04:31:23;26.77;;;3.97;;
59532;SDS011;45351;53.596;10.000;2022-08-20T04:33:57;21.07;;;3.37;;
59532;SDS011;45351;53.596;10.000;2022-08-20T04:36:24;13.23;;;3.10;;
59532;SDS011;45351;53.596;10.000;2022-08-20T04:38:51;8.60;;;2.90;;
59532;SDS011;45351;53.596;10.000;2022-08-20T04:41:19;13.03;;;2.57;;
59532;SDS011;45351;53.596;10.000;2022-08-20T04:43:46;11.23;;;2.90;;
59532;SDS011;45351;53.596;10.000;2022-08-20T04:46:13;16.10;;;3.17;;
59532;SDS011;45351;53.596;10.000;2022-08-20T04:48:41;8.83;;;2.80;;
59532;SDS011;45351;53.596;10.000;2022-08-20T04:51:09;9.00;;;2.73;;
59532;SDS011;45351;53.596;10.000;2022-08-20T04:53:39;12.20;;;3.00;;
59532;SDS011;45351;53.596;10.000;2022-08-20T04:56:07;21.43;;;2.90;;
59532;SDS011;45351;53.596;10.000;2022-08-20T04:58:35;17.63;;;2.90;;
59532;SDS011;45351;53.596;10.000;2022-08-20T05:01:04;5.67;;;2.37;;
59532;SDS011;45351;53.596;10.000;2022-08-20T05:03:33;10.23;;;2.73;;
59532;SDS011;45351;53.596;10.000;2022-08-20T05:06:03;19.10;;;2.77;;
59532;SDS011;45351;53.596;10.000;2022-08-20T05:08:31;12.87;;;2.20;;
59532;SDS011;45351;53.596;10.000;2022-08-20T05:10:58;8.67;;;2.50;;
59532;SDS011;45351;53.596;10.000;2022-08-20T05:13:25;13.27;;;2.50;;
59532;SDS011;45351;53.596;10.000;2022-08-20T05:15:53;10.10;;;2.37;;
59532;SDS011;45351;53.596;10.000;2022-08-20T05:18:21;12.33;;;2.20;;
59532;SDS011;45351;53.596;10.000;2022-08-20T05:20:50;8.53;;;2.67;;
59532;SDS011;45351;53.596;10.000;2022-08-20T05:23:18;10.50;;;2.33;;
59532;SDS011;45351;53.596;10.000;2022-08-20T05:25:48;6.87;;;2.50;;
59532;SDS011;45351;53.596;10.000;2022-08-20T05:28:17;8.87;;;2.13;;
59532;SDS011;45351;53.596;10.000;2022-08-20T05:30:45;5.53;;;2.10;;
59532;SDS011;45351;53.596;10.000;2022-08-20T05:33:14;11.40;;;2.33;;
59532;SDS011;45351;53.596;10.000;2022-08-20T05:35:44;3.10;;;2.20;;
59532;SDS011;45351;53.596;10.000;2022-08-20T05:38:13;3.53;;;2.00;;
59532;SDS011;45351;53.596;10.000;2022-08-20T05:40:44;16.17;;;2.20;;
59532;SDS011;45351;53.596;10.000;2022-08-20T05:43:12;7.77;;;2.40;;
59532;SDS011;45351;53.596;10.000;2022-08-20T05:45:40;8.87;;;2.40;;
59532;SDS011;45351;53.596;10.000;2022-08-20T05:48:09;7.93;;;2.30;;
59532;SDS011;45351;53.596;10.000;2022-08-20T05:50:38;4.97;;;2.00;;
59532;SDS011;45351;53.596;10.000;2022-08-20T05:53:07;4.60;;;1.70;;
59532;SDS011;45351;53.596;10.000;2022-08-20T05:55:34;6.20;;;2.00;;
59532;SDS011;45351;53.596;10.000;2022-08-20T05:58:04;7.43;;;2.60;;
59532;SDS011;45351;53.596;10.000;2022-08-20T06:00:34;4.20;;;2.23;;
59532;SDS011;45351;53.596;10.000;2022-08-20T06:03:01;9.60;;;2.13;;
59532;SDS011;45351;53.596;10.000;2022-08-20T06:05:45;4.23;;;2.33;;
59532;SDS011;45351;53.596;10.000;2022-08-20T06:08:13;8.10;;;2.13;;
59532;SDS011;45351;53.596;10.000;2022-08-20T06:10:41;10.23;;;2.03;;
59532;SDS011;45351;53.596;10.000;2022-08-20T06:13:09;2.67;;;1.80;;
59532;SDS011;45351;53.596;10.000;2022-08-20T06:15:36;8.50;;;2.30;;
59532;SDS011;45351;53.596;10.000;2022-08-20T06:18:05;6.83;;;2.00;;
59532;SDS011;45351;53.596;10.000;2022-08-20T06:20:32;6.00;;;2.63;;
59532;SDS011;45351;53.596;10.000;2022-08-20T06:22:59;3.53;;;1.90;;
59532;SDS011;45351;53.596;10.000;2022-08-20T06:25:27;11.57;;;2.90;;
59532;SDS011;45351;53.596;10.000;2022-08-20T06:27:54;5.43;;;2.07;;
59532;SDS011;45351;53.596;10.000;2022-08-20T06:30:22;4.50;;;2.13;;
59532;SDS011;45351;53.596;10.000;2022-08-20T06:32:49;4.83;;;2.50;;
59532;SDS011;45351;53.596;10.000;2022-08-20T06:35:16;8.50;;;2.10;;
59532;SDS011;45351;53.596;10.000;2022-08-20T06:37:43;21.80;;;2.40;;
59532;SDS011;45351;53.596;10.000;2022-08-20T06:40:11;12.23;;;2.30;;
59532;SDS011;45351;53.596;10.000;2022-08-20T06:42:40;21.90;;;3.10;;
59532;SDS011;45351;53.596;10.000;2022-08-20T06:45:09;20.77;;;3.27;;
59532;SDS011;45351;53.596;10.000;2022-08-20T06:47:39;17.30;;;7.37;;
59532;SDS011;45351;53.596;10.000;2022-08-20T06:50:08;11.07;;;8.10;;
59532;SDS011;45351;53.596;10.000;2022-08-20T06:52:37;11.40;;;6.33;;
59532;SDS011;45351;53.596;10.000;2022-08-20T06:55:05;8.80;;;4.97;;
59532;SDS011;45351;53.596;10.000;2022-08-20T06:57:34;7.30;;;3.83;;
59532;SDS011;45351;53.596;10.000;2022-08-20T07:00:02;10.03;;;3.20;;
59532;SDS011;45351;53.596;10.000;2022-08-20T07:02:30;6.67;;;4.57;;
59532;SDS011;45351;53.596;10.000;2022-08-20T07:04:59;16.20;;;5.97;;
59532;SDS011;45351;53.596;10.000;2022-08-20T07:07:26;4.00;;;2.83;;
59532;SDS011;45351;53.596;10.000;2022-08-20T07:09:57;14.63;;;7.77;;
59532;SDS011;45351;53.596;10.000;2022-08-20T07:12:25;8.40;;;6.00;;
59532;SDS011;45351;53.596;10.000;2022-08-20T07:14:52;8.20;;;3.93;;
59532;SDS011;45351;53.596;10.000;2022-08-20T07:17:19;8.30;;;4.20;;
59532;SDS011;45351;53.596;10.000;2022-08-20T07:19:46;9.73;;;5.50;;
59532;SDS011;45351;53.596;10.000;2022-08-20T07:22:14;3.70;;;2.27;;
59532;SDS011;45351;53.596;10.000;2022-08-20T07:24:41;4.23;;;3.03;;
59532;SDS011;45351;53.596;10.000;2022-08-20T07:27:09;14.17;;;5.70;;
59532;SDS011;45351;53.596;10.000;2022-08-20T07:29:36;7.03;;;3.90;;
59532;SDS011;45351;53.596;10.000;2022-08-20T07:32:20;4.00;;;2.40;;
59532;SDS011;45351;53.596;10.000;2022-08-20T07:35:00;5.93;;;4.57;;
59532;SDS011;45351;53.596;10.000;2022-08-20T07:37:31;13.87;;;3.70;;
59532;SDS011;45351;53.596;10.000;2022-08-20T07:40:03;10.73;;;5.37;;
59532;SDS011;45351;53.596;10.000;2022-08-20T07:42:31;6.93;;;4.13;;
59532;SDS011;45351;53.596;10.000;2022-08-20T07:44:58;12.37;;;3.60;;
59532;SDS011;45351;53.596;10.000;2022-08-20T07:47:25;6.00;;;3.50;;
59532;SDS011;45351;53.596;10.000;2022-08-20T07:49:52;10.90;;;4.23;;
59532;SDS011;45351;53.596;10.000;2022-08-20T07:52:18;14.03;;;3.07;;
59532;SDS011;45351;53.596;10.000;2022-08-20T07:54:47;12.30;;;2.80;;
59532;SDS011;45351;53.596;10.000;2022-08-20T07:57:13;8.17;;;2.77;;
59532;SDS011;45351;53.596;10.000;2022-08-20T07:59:41;6.10;;;2.83;;
59532;SDS011;45351;53.596;10.000;2022-08-20T08:02:09;5.90;;;2.77;;
59532;SDS011;45351;53.596;10.000;2022-08-20T08:04:37;6.10;;;2.40;;
59532;SDS011;45351;53.596;10.000;2022-08-20T08:07:04;7.33;;;3.90;;
59532;SDS011;45351;53.596;10.000;2022-08-20T08:09:32;6.33;;;3.17;;
59532;SDS011;45351;53.596;10.000;2022-08-20T08:12:01;6.37;;;2.90;;
59532;SDS011;45351;53.596;10.000;2022-08-20T08:14:30;5.73;;;2.47;;
59532;SDS011;45351;53.596;10.000;2022-08-20T08:17:00;8.43;;;3.70;;
59532;SDS011;45351;53.596;10.000;2022-08-20T08:19:29;5.67;;;3.30;;
59532;SDS011;45351;53.596;10.000;2022-08-20T08:22:02;3.20;;;2.00;;
59532;SDS011;45351;53.596;10.000;2022-08-20T08:24:30;8.37;;;3.70;;
59532;SDS011;45351;53.596;10.000;2022-08-20T08:26:57;4.40;;;2.73;;
59532;SDS011;45351;53.596;10.000;2022-08-20T08:29:25;6.70;;;3.30;;
59532;SDS011;45351;53.596;10.000;2022-08-20T08:31:53;3.90;;;3.00;;
59532;SDS011;45351;53.596;10.000;2022-08-20T08:34:20;8.37;;;3.17;;
59532;SDS011;45351;53.596;10.000;2022-08-20T08:36:49;7.50;;;2.87;;
59532;SDS011;45351;53.596;10.000;2022-08-20T08:39:16;9.00;;;3.53;;
59532;SDS011;45351;53.596;10.000;2022-08-20T08:41:45;5.57;;;2.83;;
59532;SDS011;45351;53.596;10.000;2022-08-20T08:44:15;8.83;;;2.70;;
59532;SDS011;45351;53.596;10.000;2022-08-20T08:46:49;10.20;;;2.27;;
59532;SDS011;45351;53.596;10.000;2022-08-20T08:49:21;6.47;;;2.57;;
59532;SDS011;45351;53.596;10.000;2022-08-20T08:51:53;4.30;;;2.10;;
59532;SDS011;45351;53.596;10.000;2022-08-20T08:54:24;5.90;;;2.40;;
59532;SDS011;45351;53.596;10.000;2022-08-20T08:56:55;14.27;;;2.10;;
59532;SDS011;45351;53.596;10.000;2022-08-20T08:59:23;6.47;;;2.60;;
59532;SDS011;45351;53.596;10.000;2022-08-20T09:01:56;8.77;;;2.30;;
59532;SDS011;45351;53.596;10.000;2022-08-20T09:04:26;6.03;;;2.30;;
59532;SDS011;45351;53.596;10.000;2022-08-20T09:06:56;4.20;;;2.23;;
59532;SDS011;45351;53.596;10.000;2022-08-20T09:09:24;5.47;;;2.10;;
59532;SDS011;45351;53.596;10.000;2022-08-20T09:11:56;6.87;;;2.40;;
59532;SDS011;45351;53.596;10.000;2022-08-20T09:14:28;4.40;;;2.00;;
59532;SDS011;45351;53.596;10.000;2022-08-20T09:16:56;10.77;;;2.10;;
59532;SDS011;45351;53.596;10.000;2022-08-20T09:19:23;5.93;;;2.13;;
59532;SDS011;45351;53.596;10.000;2022-08-20T09:21:50;8.00;;;2.30;;
59532;SDS011;45351;53.596;10.000;2022-08-20T09:24:16;7.80;;;2.30;;
59532;SDS011;45351;53.596;10.000;2022-08-20T09:26:44;7.87;;;2.00;;
59532;SDS011;45351;53.596;10.000;2022-08-20T09:29:11;4.00;;;1.93;;
59532;SDS011;45351;53.596;10.000;2022-08-20T09:31:38;4.33;;;1.97;;
59532;SDS011;45351;53.596;10.000;2022-08-20T09:34:06;9.40;;;2.57;;
59532;SDS011;45351;53.596;10.000;2022-08-20T09:36:33;4.97;;;1.90;;
59532;SDS011;45351;53.596;10.000;2022-08-20T09:39:00;3.53;;;2.00;;
59532;SDS011;45351;53.596;10.000;2022-08-20T09:41:27;2.57;;;1.60;;
59532;SDS011;45351;53.596;10.000;2022-08-20T09:43:54;3.57;;;1.83;;
59532;SDS011;45351;53.596;10.000;2022-08-20T09:46:21;4.63;;;2.33;;
59532;SDS011;45351;53.596;10.000;2022-08-20T09:48:48;8.53;;;1.90;;
59532;SDS011;45351;53.596;10.000;2022-08-20T09:51:16;4.63;;;2.00;;
59532;SDS011;45351;53.596;10.000;2022-08-20T09:53:43;7.23;;;2.30;;
59532;SDS011;45351;53.596;10.000;2022-08-20T09:56:11;4.40;;;1.50;;
59532;SDS011;45351;53.596;10.000;2022-08-20T09:58:41;3.07;;;1.70;;
59532;SDS011;45351;53.596;10.000;2022-08-20T10:01:13;6.03;;;2.07;;
59532;SDS011;45351;53.596;10.000;2022-08-20T10:03:42;11.10;;;2.07;;
59532;SDS011;45351;53.596;10.000;2022-08-20T10:06:12;6.60;;;2.20;;
59532;SDS011;45351;53.596;10.000;2022-08-20T10:08:42;6.43;;;2.10;;
59532;SDS011;45351;53.596;10.000;2022-08-20T10:11:09;7.60;;;2.63;;
59532;SDS011;45351;53.596;10.000;2022-08-20T10:13:36;3.73;;;1.70;;
59532;SDS011;45351;53.596;10.000;2022-08-20T10:16:03;5.47;;;1.60;;
59532;SDS011;45351;53.596;10.000;2022-08-20T10:18:31;6.13;;;2.00;;
59532;SDS011;45351;53.596;10.000;2022-08-20T10:20:58;6.50;;;2.30;;
59532;SDS011;45351;53.596;10.000;2022-08-20T10:23:24;8.30;;;2.23;;
59532;SDS011;45351;53.596;10.000;2022-08-20T10:25:53;4.40;;;1.77;;
59532;SDS011;45351;53.596;10.000;2022-08-20T10:28:20;9.53;;;2.50;;
59532;SDS011;45351;53.596;10.000;2022-08-20T10:30:47;10.73;;;2.57;;
59532;SDS011;45351;53.596;10.000;2022-08-20T10:33:13;5.77;;;2.30;;
59532;SDS011;45351;53.596;10.000;2022-08-20T10:35:40;4.07;;;1.70;;
59532;SDS011;45351;53.596;10.000;2022-08-20T10:38:07;8.60;;;2.30;;
59532;SDS011;45351;53.596;10.000;2022-08-20T10:40:34;5.97;;;1.83;;
59532;SDS011;45351;53.596;10.000;2022-08-20T10:43:02;7.77;;;2.07;;
59532;SDS011;45351;53.596;10.000;2022-08-20T10:45:29;6.67;;;1.90;;
59532;SDS011;45351;53.596;10.000;2022-08-20T10:47:57;3.03;;;2.00;;
59532;SDS011;45351;53.596;10.000;2022-08-20T10:50:24;8.63;;;2.17;;
59532;SDS011;45351;53.596;10.000;2022-08-20T10:52:51;6.53;;;2.33;;
59532;SDS011;45351;53.596;10.000;2022-08-20T10:55:18;6.63;;;1.97;;
59532;SDS011;45351;53.596;10.000;2022-08-20T10:57:46;6.13;;;1.70;;
59532;SDS011;45351;53.596;10.000;2022-08-20T11:00:15;2.20;;;1.27;;
59532;SDS011;45351;53.596;10.000;2022-08-20T11:02:43;3.93;;;1.30;;
59532;SDS011;45351;53.596;10.000;2022-08-20T11:05:10;5.03;;;1.53;;
59532;SDS011;45351;53.596;10.000;2022-08-20T11:07:37;2.33;;;1.47;;
59532;SDS011;45351;53.596;10.000;2022-08-20T11:10:06;2.83;;;1.40;;
59532;SDS011;45351;53.596;10.000;2022-08-20T11:12:34;2.70;;;1.50;;
59532;SDS011;45351;53.596;10.000;2022-08-20T11:15:01;3.27;;;1.43;;
59532;SDS011;45351;53.596;10.000;2022-08-20T11:17:34;3.77;;;1.40;;
59532;SDS011;45351;53.596;10.000;2022-08-20T11:20:03;3.00;;;1.40;;
59532;SDS011;45351;53.596;10.000;2022-08-20T11:22:31;4.10;;;1.63;;
59532;SDS011;45351;53.596;10.000;2022-08-20T11:24:58;3.00;;;1.20;;
59532;SDS011;45351;53.596;10.000;2022-08-20T11:27:27;3.50;;;1.70;;
59532;SDS011;45351;53.596;10.000;2022-08-20T11:29:55;2.33;;;1.27;;
59532;SDS011;45351;53.596;10.000;2022-08-20T11:32:23;2.57;;;1.37;;
59532;SDS011;45351;53.596;10.000;2022-08-20T11:34:51;2.13;;;1.10;;
59532;SDS011;45351;53.596;10.000;2022-08-20T11:37:19;2.67;;;1.40;;
59532;SDS011;45351;53.596;10.000;2022-08-20T11:39:49;4.50;;;1.40;;
59532;SDS011;45351;53.596;10.000;2022-08-20T11:42:16;2.97;;;1.30;;
59532;SDS011;45351;53.596;10.000;2022-08-20T11:44:43;2.13;;;1.20;;
59532;SDS011;45351;53.596;10.000;2022-08-20T11:47:18;2.33;;;1.00;;
59532;SDS011;45351;53.596;10.000;2022-08-20T11:49:54;3.03;;;1.20;;
59532;SDS011;45351;53.596;10.000;2022-08-20T11:52:23;2.53;;;1.20;;
59532;SDS011;45351;53.596;10.000;2022-08-20T11:54:51;2.40;;;1.30;;
59532;SDS011;45351;53.596;10.000;2022-08-20T11:57:18;1.70;;;1.00;;
59532;SDS011;45351;53.596;10.000;2022-08-20T11:59:47;2.80;;;1.30;;
59532;SDS011;45351;53.596;10.000;2022-08-20T12:02:15;2.33;;;1.20;;
59532;SDS011;45351;53.596;10.000;2022-08-20T12:04:41;1.90;;;1.00;;
59532;SDS011;45351;53.596;10.000;2022-08-20T12:07:10;1.70;;;1.00;;
59532;SDS011;45351;53.596;10.000;2022-08-20T12:09:39;1.40;;;0.90;;
59532;SDS011;45351;53.596;10.000;2022-08-20T12:12:07;1.30;;;0.90;;
59532;SDS011;45351;53.596;10.000;2022-08-20T12:14:34;1.30;;;0.90;;
59532;SDS011;45351;53.596;10.000;2022-08-20T12:17:06;2.60;;;1.00;;
59532;SDS011;45351;53.596;10.000;2022-08-20T12:19:35;1.83;;;1.13;;
59532;SDS011;45351;53.596;10.000;2022-08-20T12:22:03;1.40;;;0.93;;
59532;SDS011;45351;53.596;10.000;2022-08-20T12:24:31;2.70;;;1.20;;
59532;SDS011;45351;53.596;10.000;2022-08-20T12:27:06;1.60;;;0.80;;
59532;SDS011;45351;53.596;10.000;2022-08-20T12:29:35;4.87;;;1.00;;
59532;SDS011;45351;53.596;10.000;2022-08-20T12:32:03;1.77;;;1.07;;
59532;SDS011;45351;53.596;10.000;2022-08-20T12:34:31;2.60;;;1.20;;
59532;SDS011;45351;53.596;10.000;2022-08-20T12:36:59;1.77;;;1.10;;
59532;SDS011;45351;53.596;10.000;2022-08-20T12:39:30;1.93;;;1.00;;
59532;SDS011;45351;53.596;10.000;2022-08-20T12:41:58;2.30;;;0.90;;
59532;SDS011;45351;53.596;10.000;2022-08-20T12:44:27;1.57;;;0.90;;
59532;SDS011;45351;53.596;10.000;2022-08-20T12:47:04;1.20;;;1.03;;
59532;SDS011;45351;53.596;10.000;2022-08-20T12:49:32;1.90;;;1.10;;
59532;SDS011;45351;53.596;10.000;2022-08-20T12:51:59;2.00;;;0.97;;
59532;SDS011;45351;53.596;10.000;2022-08-20T12:54:25;1.30;;;1.00;;
59532;SDS011;45351;53.596;10.000;2022-08-20T12:56:54;2.47;;;1.20;;
59532;SDS011;45351;53.596;10.000;2022-08-20T12:59:21;1.50;;;0.90;;
59532;SDS011;45351;53.596;10.000;2022-08-20T13:01:48;1.53;;;0.80;;
59532;SDS011;45351;53.596;10.000;2022-08-20T13:04:16;1.40;;;1.00;;
59532;SDS011;45351;53.596;10.000;2022-08-20T13:06:43;1.40;;;0.87;;
59532;SDS011;45351;53.596;10.000;2022-08-20T13:09:10;2.30;;;1.00;;
59532;SDS011;45351;53.596;10.000;2022-08-20T13:11:38;1.77;;;0.97;;
59532;SDS011;45351;53.596;10.000;2022-08-20T13:14:06;1.40;;;1.00;;
59532;SDS011;45351;53.596;10.000;2022-08-20T13:16:33;1.10;;;0.77;;
59532;SDS011;45351;53.596;10.000;2022-08-20T13:19:00;2.47;;;0.80;;
59532;SDS011;45351;53.596;10.000;2022-08-20T13:21:27;2.33;;;0.77;;
59532;SDS011;45351;53.596;10.000;2022-08-20T13:23:54;1.40;;;0.90;;
59532;SDS011;45351;53.596;10.000;2022-08-20T13:26:21;1.10;;;0.80;;
59532;SDS011;45351;53.596;10.000;2022-08-20T13:28:48;1.60;;;0.90;;
59532;SDS011;45351;53.596;10.000;2022-08-20T13:31:16;1.60;;;0.90;;
59532;SDS011;45351;53.596;10.000;2022-08-20T13:33:44;1.30;;;0.90;;
59532;SDS011;45351;53.596;10.000;2022-08-20T13:36:11;1.10;;;0.70;;
59532;SDS011;45351;53.596;10.000;2022-08-20T13:38:38;1.20;;;0.80;;
59532;SDS011;45351;53.596;10.000;2022-08-20T13:41:05;1.17;;;0.70;;
59532;SDS011;45351;53.596;10.000;2022-08-20T13:43:32;1.60;;;0.80;;
59532;SDS011;45351;53.596;10.000;2022-08-20T13:45:58;1.40;;;0.80;;
59532;SDS011;45351;53.596;10.000;2022-08-20T13:48:27;1.23;;;0.80;;
59532;SDS011;45351;53.596;10.000;2022-08-20T13:50:54;1.20;;;0.80;;
59532;SDS011;45351;53.596;10.000;2022-08-20T13:53:20;1.20;;;0.87;;
59532;SDS011;45351;53.596;10.000;2022-08-20T13:55:47;1.23;;;0.80;;
59532;SDS011;45351;53.596;10.000;2022-08-20T13:58:14;1.30;;;0.80;;
59532;SDS011;45351;53.596;10.000;2022-08-20T14:00:42;1.90;;;0.77;;
59532;SDS011;45351;53.596;10.000;2022-08-20T14:03:10;1.10;;;0.73;;
59532;SDS011;45351;53.596;10.000;2022-08-20T14:05:39;1.20;;;0.80;;
59532;SDS011;45351;53.596;10.000;2022-08-20T14:08:06;1.10;;;0.70;;
59532;SDS011;45351;53.596;10.000;2022-08-20T14:10:35;1.43;;;0.70;;
59532;SDS011;45351;53.596;10.000;2022-08-20T14:13:03;1.20;;;0.70;;
59532;SDS011;45351;53.596;10.000;2022-08-20T14:15:31;1.10;;;0.70;;
59532;SDS011;45351;53.596;10.000;2022-08-20T14:17:58;1.20;;;0.80;;
59532;SDS011;45351;53.596;10.000;2022-08-20T14:20:27;1.10;;;0.70;;
59532;SDS011;45351;53.596;10.000;2022-08-20T14:22:57;2.23;;;0.80;;
59532;SDS011;45351;53.596;10.000;2022-08-20T14:25:24;5.47;;;0.90;;
59532;SDS011;45351;53.596;10.000;2022-08-20T14:27:53;7.57;;;0.90;;
59532;SDS011;45351;53.596;10.000;2022-08-20T14:30:22;9.50;;;1.20;;
59532;SDS011;45351;53.596;10.000;2022-08-20T14:32:51;7.43;;;1.47;;
59532;SDS011;45351;53.596;10.000;2022-08-20T14:35:19;15.87;;;1.73;;
59532;SDS011;45351;53.596;10.000;2022-08-20T14:37:47;21.83;;;2.00;;
59532;SDS011;45351;53.596;10.000;2022-08-20T14:40:17;15.50;;;1.70;;